createdAt,value
2018-08-20T00:01:37.203Z,69.10
2018-08-20T00:04:09.399Z,70.70
2018-08-20T00:06:51.108Z,72.00
2018-08-20T00:09:21.370Z,74.40
2018-08-20T00:11:51.590Z,73.30
2018-08-20T00:14:22.072Z,72.40
2018-08-20T00:16:50.797Z,73.00
2018-08-20T00:19:19.370Z,72.70
2018-08-20T00:21:48.009Z,72.40
2018-08-20T00:24:16.529Z,72.70
2018-08-20T00:26:45.126Z,73.20
2018-08-20T00:29:13.623Z,72.40
2018-08-20T00:31:42.294Z,72.80
2018-08-20T00:34:10.869Z,71.80
2018-08-20T00:36:39.431Z,71.10
2018-08-20T00:39:09.987Z,70.90
2018-08-20T00:41:38.894Z,71.20
2018-08-20T00:44:12.115Z,72.10
2018-08-20T00:46:41.473Z,72.30
2018-08-20T00:49:10.054Z,71.90
2018-08-20T00:51:38.594Z,71.40
2018-08-20T00:54:07.238Z,73.50
2018-08-20T00:56:36.078Z,77.60
2018-08-20T00:59:04.683Z,80.70
2018-08-20T01:01:33.948Z,77.30
2018-08-20T01:04:03.374Z,75.80
2018-08-20T01:06:32.443Z,75.60
2018-08-20T01:09:01.012Z,75.30
2018-08-20T01:11:29.589Z,74.30
2018-08-20T01:13:58.211Z,74.90
2018-08-20T01:16:27.524Z,74.90
2018-08-20T01:18:56.232Z,74.70
2018-08-20T01:21:24.898Z,74.30
2018-08-20T01:23:53.487Z,73.90
2018-08-20T01:26:21.978Z,73.10
2018-08-20T01:28:50.526Z,71.70
2018-08-20T01:31:19.001Z,71.40
2018-08-20T01:33:47.473Z,69.60
2018-08-20T01:36:15.993Z,69.80
2018-08-20T01:38:44.495Z,69.60
2018-08-20T01:41:13.796Z,69.60
2018-08-20T01:43:43.058Z,69.60
2018-08-20T01:46:11.590Z,69.10
2018-08-20T01:48:40.058Z,68.70
2018-08-20T01:51:08.619Z,68.30
2018-08-20T01:53:37.125Z,67.60
2018-08-20T01:56:05.631Z,67.40
2018-08-20T01:58:34.409Z,66.70
2018-08-20T02:01:03.000Z,66.60
2018-08-20T02:03:32.237Z,64.90
2018-08-20T02:06:00.804Z,64.90
2018-08-20T02:08:29.452Z,64.90
2018-08-20T02:10:58.053Z,64.90
2018-08-20T02:13:26.542Z,64.80
2018-08-20T02:15:55.033Z,64.40
2018-08-20T02:18:23.554Z,64.30
2018-08-20T02:20:52.319Z,63.80
2018-08-20T02:23:21.275Z,63.30
2018-08-20T02:25:49.754Z,63.40
2018-08-20T02:28:18.435Z,62.90
2018-08-20T02:30:46.906Z,63.20
2018-08-20T02:33:15.486Z,62.30
2018-08-20T02:35:43.999Z,61.80
2018-08-20T02:38:12.577Z,61.90
2018-08-20T02:40:41.146Z,61.50
2018-08-20T02:43:09.748Z,60.90
2018-08-20T02:45:38.261Z,60.20
2018-08-20T02:48:08.595Z,61.60
2018-08-20T02:50:37.145Z,61.50
2018-08-20T02:53:06.138Z,61.00
2018-08-20T02:55:34.606Z,60.80
2018-08-20T02:58:03.288Z,61.80
2018-08-20T03:00:31.833Z,61.40
2018-08-20T03:03:03.768Z,62.10
2018-08-20T03:05:33.326Z,61.70
2018-08-20T03:08:02.320Z,61.60
2018-08-20T03:10:30.844Z,60.80
2018-08-20T03:12:59.430Z,61.70
2018-08-20T03:15:27.924Z,61.40
2018-08-20T03:17:56.462Z,62.00
2018-08-20T03:20:25.122Z,61.50
2018-08-20T03:22:53.710Z,61.40
2018-08-20T03:25:22.232Z,61.70
2018-08-20T03:27:51.325Z,61.50
2018-08-20T03:30:19.946Z,61.10
2018-08-20T03:32:48.419Z,61.50
2018-08-20T03:35:16.981Z,61.20
2018-08-20T03:37:45.501Z,61.30
2018-08-20T03:40:14.205Z,60.90
2018-08-20T03:42:43.344Z,61.40
2018-08-20T03:45:12.130Z,60.70
2018-08-20T03:47:41.622Z,61.80
2018-08-20T03:50:13.275Z,61.50
2018-08-20T03:52:41.939Z,61.90
2018-08-20T03:55:10.483Z,61.20
2018-08-20T03:57:39.090Z,61.00
2018-08-20T04:00:09.530Z,61.20
2018-08-20T04:02:38.239Z,61.10
2018-08-20T04:05:06.822Z,60.00
2018-08-20T04:07:35.564Z,60.50
2018-08-20T04:10:04.197Z,60.80
2018-08-20T04:12:33.396Z,60.60
2018-08-20T04:15:01.883Z,61.40
2018-08-20T04:17:30.392Z,62.00
2018-08-20T04:19:58.923Z,61.20
2018-08-20T04:22:27.398Z,60.70
2018-08-20T04:24:55.946Z,60.30
2018-08-20T04:27:24.436Z,59.50
2018-08-20T04:29:52.976Z,59.30
2018-08-20T04:32:21.448Z,59.30
2018-08-20T04:34:49.982Z,59.30
2018-08-20T04:37:18.512Z,59.30
2018-08-20T04:39:47.840Z,60.20
2018-08-20T04:42:16.493Z,60.50
2018-08-20T04:44:45.202Z,61.70
2018-08-20T04:47:14.066Z,61.60
2018-08-20T04:49:42.618Z,61.50
2018-08-20T04:52:11.120Z,61.60
2018-08-20T04:54:39.673Z,61.70
2018-08-20T04:57:08.189Z,61.90
2018-08-20T04:59:36.700Z,62.10
2018-08-20T05:02:05.284Z,61.70
2018-08-20T05:04:33.771Z,61.70
2018-08-20T05:07:02.378Z,61.80
2018-08-20T05:09:30.911Z,61.30
2018-08-20T05:11:59.529Z,61.50
2018-08-20T05:14:28.067Z,60.80
2018-08-20T05:16:56.608Z,60.60
2018-08-20T05:19:25.196Z,61.10
2018-08-20T05:21:53.686Z,60.70
2018-08-20T05:24:22.231Z,59.90
2018-08-20T05:26:50.755Z,59.10
2018-08-20T05:29:19.476Z,58.30
2018-08-20T05:31:47.997Z,58.40
2018-08-20T05:34:16.494Z,58.00
2018-08-20T05:36:45.015Z,58.80
2018-08-20T05:39:13.581Z,58.00
2018-08-20T05:41:42.070Z,57.00
2018-08-20T05:44:10.640Z,57.70
2018-08-20T05:46:39.211Z,56.40
2018-08-20T05:49:07.794Z,57.20
2018-08-20T05:51:36.276Z,54.90
2018-08-20T05:54:04.920Z,55.60
2018-08-20T05:56:33.397Z,55.00
2018-08-20T05:59:02.257Z,55.80
2018-08-20T06:01:31.160Z,55.10
2018-08-20T06:03:59.692Z,55.30
2018-08-20T06:06:28.477Z,55.30
2018-08-20T06:08:57.034Z,56.20
2018-08-20T06:11:25.529Z,55.50
2018-08-20T06:13:54.091Z,54.40
2018-08-20T06:16:22.586Z,54.10
2018-08-20T06:18:51.685Z,54.20
2018-08-20T06:21:20.242Z,54.50
2018-08-20T06:23:48.923Z,54.20
2018-08-20T06:26:17.507Z,55.50
2018-08-20T06:28:46.035Z,53.60
2018-08-20T06:31:14.568Z,54.10
2018-08-20T06:33:43.088Z,52.80
2018-08-20T06:36:11.648Z,52.50
2018-08-20T06:38:40.178Z,53.00
2018-08-20T06:41:09.493Z,54.20
2018-08-20T06:43:38.030Z,51.90
2018-08-20T06:46:06.723Z,52.50
2018-08-20T06:48:35.826Z,53.60
2018-08-20T06:51:05.727Z,51.70
2018-08-20T06:53:34.243Z,51.10
2018-08-20T06:56:02.777Z,49.70
2018-08-20T06:58:31.285Z,49.70
2018-08-20T07:00:59.846Z,51.80
2018-08-20T07:03:28.398Z,49.80
2018-08-20T07:05:56.953Z,49.90
2018-08-20T07:08:25.718Z,49.90
2018-08-20T07:10:54.294Z,50.00
2018-08-20T07:13:36.308Z,50.00
2018-08-20T07:16:05.984Z,50.10
2018-08-20T07:18:34.628Z,50.10
2018-08-20T07:21:03.561Z,48.90
2018-08-20T07:23:32.341Z,47.90
2018-08-20T07:26:00.784Z,47.80
2018-08-20T07:28:31.159Z,47.40
2018-08-20T07:30:59.689Z,46.60
2018-08-20T07:33:28.267Z,46.80
2018-08-20T07:35:56.825Z,47.40
2018-08-20T07:38:25.442Z,43.80
2018-08-20T07:40:54.084Z,45.00
2018-08-20T07:43:22.590Z,46.10
2018-08-20T07:45:51.113Z,46.00
2018-08-20T07:48:19.692Z,45.30
2018-08-20T07:50:48.247Z,45.30
2018-08-20T07:53:16.854Z,45.00
2018-08-20T07:55:45.882Z,43.60
2018-08-20T07:58:14.736Z,43.60
2018-08-20T08:00:44.135Z,44.20
2018-08-20T08:03:12.709Z,43.80
2018-08-20T08:05:41.372Z,43.80
2018-08-20T08:08:09.999Z,43.80
2018-08-20T08:10:38.609Z,43.90
2018-08-20T08:13:07.229Z,42.90
2018-08-20T08:15:35.700Z,44.10
2018-08-20T08:18:04.332Z,43.00
2018-08-20T08:20:32.837Z,43.10
2018-08-20T08:23:01.432Z,42.40
2018-08-20T08:25:29.982Z,41.80
2018-08-20T08:27:58.543Z,40.90
2018-08-20T08:30:27.127Z,41.40
2018-08-20T08:32:55.675Z,42.20
2018-08-20T08:35:25.046Z,41.50
2018-08-20T08:37:53.640Z,41.60
2018-08-20T08:40:22.363Z,40.70
2018-08-20T08:42:50.827Z,40.30
2018-08-20T08:45:19.514Z,39.60
2018-08-20T08:47:48.049Z,39.80
2018-08-20T08:50:17.506Z,40.60
2018-08-20T08:52:46.675Z,40.60
2018-08-20T08:55:15.230Z,39.20
2018-08-20T08:57:43.750Z,41.50
2018-08-20T09:00:17.654Z,39.60
2018-08-20T09:02:46.428Z,39.90
2018-08-20T09:05:15.090Z,37.70
2018-08-20T09:07:44.154Z,40.60
2018-08-20T09:10:13.196Z,40.60
2018-08-20T09:12:41.934Z,37.80
2018-08-20T09:15:16.318Z,40.00
2018-08-20T09:17:45.241Z,37.90
2018-08-20T09:20:16.542Z,38.00
2018-08-20T09:22:46.062Z,38.00
2018-08-20T09:25:15.154Z,39.70
2018-08-20T09:27:44.895Z,38.00
2018-08-20T09:30:23.167Z,38.40
2018-08-20T09:32:51.834Z,38.70
2018-08-20T09:35:20.411Z,39.10
2018-08-20T09:37:48.984Z,38.10
2018-08-20T09:40:17.761Z,38.50
2018-08-20T09:42:46.452Z,39.30
2018-08-20T09:45:14.954Z,38.20
2018-08-20T09:47:44.177Z,39.50
2018-08-20T09:50:14.706Z,38.20
2018-08-20T09:52:43.613Z,38.30
2018-08-20T09:55:12.109Z,39.30
2018-08-20T09:57:41.000Z,39.40
2018-08-20T10:00:13.617Z,38.30
2018-08-20T10:02:42.844Z,38.30
2018-08-20T10:05:11.385Z,38.40
2018-08-20T10:07:40.164Z,39.10
2018-08-20T10:10:08.752Z,38.50
2018-08-20T10:12:37.441Z,38.40
2018-08-20T10:15:06.025Z,38.20
2018-08-20T10:17:35.059Z,38.10
2018-08-20T10:20:04.634Z,38.10
2018-08-20T10:22:33.162Z,38.10
2018-08-20T10:25:01.743Z,38.10
2018-08-20T10:27:30.230Z,38.20
2018-08-20T10:29:58.773Z,38.30
2018-08-20T10:32:27.297Z,38.40
2018-08-20T10:34:55.869Z,38.40
2018-08-20T10:37:24.602Z,38.60
2018-08-20T10:39:53.167Z,38.80
2018-08-20T10:42:21.793Z,38.90
2018-08-20T10:44:54.710Z,39.20
2018-08-20T10:47:23.553Z,34.40
2018-08-20T10:49:52.093Z,37.00
2018-08-20T10:52:20.600Z,38.40
2018-08-20T10:54:49.679Z,37.50
2018-08-20T10:57:18.516Z,38.60
2018-08-20T10:59:47.107Z,38.10
2018-08-20T11:02:15.619Z,38.60
2018-08-20T11:04:44.421Z,38.50
2018-08-20T11:07:13.000Z,38.80
2018-08-20T11:09:41.517Z,39.30
2018-08-20T11:12:10.132Z,38.80
2018-08-20T11:14:38.870Z,38.80
2018-08-20T11:17:07.511Z,37.60
2018-08-20T11:19:36.018Z,37.50
2018-08-20T11:22:04.603Z,38.80
2018-08-20T11:24:33.210Z,36.70
2018-08-20T11:27:01.837Z,38.80
2018-08-20T11:29:30.274Z,38.20
2018-08-20T11:31:58.954Z,37.20
2018-08-20T11:34:27.628Z,37.70
2018-08-20T11:36:56.311Z,38.60
2018-08-20T11:39:24.838Z,38.50
2018-08-20T11:41:53.345Z,36.20
2018-08-20T11:44:21.896Z,38.80
2018-08-20T11:46:50.486Z,39.00
2018-08-20T11:49:19.019Z,37.90
2018-08-20T11:51:47.510Z,36.90
2018-08-20T11:54:16.044Z,36.90
2018-08-20T11:56:44.798Z,37.80
2018-08-20T11:59:13.345Z,37.60
2018-08-20T12:01:41.833Z,37.80
2018-08-20T12:04:10.410Z,40.10
2018-08-20T12:06:38.928Z,38.80
2018-08-20T12:09:07.669Z,37.20
2018-08-20T12:11:36.392Z,37.70
2018-08-20T12:14:04.961Z,36.50
2018-08-20T12:16:33.509Z,37.30
2018-08-20T12:19:02.044Z,36.70
2018-08-20T12:21:30.536Z,36.10
2018-08-20T12:23:59.800Z,36.00
2018-08-20T12:26:28.307Z,37.50
2018-08-20T12:28:56.874Z,35.10
2018-08-20T12:31:25.416Z,36.40
2018-08-20T12:33:54.259Z,36.90
2018-08-20T12:36:22.797Z,37.20
2018-08-20T12:38:51.873Z,36.60
2018-08-20T12:41:20.586Z,37.70
2018-08-20T12:43:49.133Z,38.30
2018-08-20T12:46:19.745Z,38.50
2018-08-20T12:48:50.295Z,38.60
2018-08-20T12:51:20.367Z,37.20
2018-08-20T12:53:48.875Z,38.20
2018-08-20T12:56:17.815Z,38.20
2018-08-20T12:58:49.730Z,38.20
2018-08-20T13:01:18.674Z,38.10
2018-08-20T13:03:48.130Z,38.10
2018-08-20T13:06:16.883Z,38.30
2018-08-20T13:08:46.556Z,38.40
2018-08-20T13:11:15.635Z,38.80
2018-08-20T13:13:44.503Z,39.00
2018-08-20T13:16:13.217Z,37.30
2018-08-20T13:18:41.587Z,35.00
2018-08-20T13:21:10.158Z,36.00
2018-08-20T13:23:38.682Z,35.60
2018-08-20T13:26:07.338Z,36.40
2018-08-20T13:28:35.834Z,33.40
2018-08-20T13:31:04.619Z,34.30
2018-08-20T13:33:33.178Z,33.70
2018-08-20T13:36:01.753Z,34.90
2018-08-20T13:38:30.271Z,35.90
2018-08-20T13:40:58.848Z,34.20
2018-08-20T13:43:27.387Z,33.80
2018-08-20T13:45:56.015Z,35.40
2018-08-20T13:48:25.101Z,34.70
2018-08-20T13:50:54.771Z,32.70
2018-08-20T13:53:23.375Z,32.50
2018-08-20T13:55:51.979Z,32.20
2018-08-20T13:58:20.746Z,29.30
2018-08-20T14:00:49.363Z,29.90
2018-08-20T14:03:18.127Z,28.20
2018-08-20T14:05:46.709Z,27.10
2018-08-20T14:08:15.239Z,26.40
2018-08-20T14:10:43.802Z,27.70
2018-08-20T14:13:12.313Z,27.60
2018-08-20T14:15:40.890Z,29.30
2018-08-20T14:18:09.455Z,28.00
2018-08-20T14:20:38.028Z,28.30
2018-08-20T14:23:06.547Z,30.20
2018-08-20T14:25:35.098Z,31.10
2018-08-20T14:28:03.618Z,31.30
2018-08-20T14:30:32.225Z,32.40
2018-08-20T14:33:00.724Z,32.20
2018-08-20T14:35:29.277Z,32.90
2018-08-20T14:37:57.804Z,32.10
2018-08-20T14:40:26.434Z,33.10
2018-08-20T14:42:54.986Z,31.90
2018-08-20T14:45:23.632Z,32.10
2018-08-20T14:47:52.235Z,32.00
2018-08-20T14:50:20.817Z,31.90
2018-08-20T14:52:49.338Z,32.40
2018-08-20T14:55:17.915Z,34.40
2018-08-20T14:57:47.355Z,32.00
2018-08-20T15:00:16.062Z,31.50
2018-08-20T15:02:44.761Z,33.90
2018-08-20T15:05:13.310Z,32.20
2018-08-20T15:07:41.844Z,32.10
2018-08-20T15:10:10.400Z,30.60
2018-08-20T15:12:38.919Z,32.00
2018-08-20T15:15:08.606Z,31.80
2018-08-20T15:17:37.118Z,31.00
2018-08-20T15:20:07.153Z,31.40
2018-08-20T15:22:35.703Z,32.70
2018-08-20T15:25:04.554Z,31.90
2018-08-20T15:27:33.136Z,33.50
2018-08-20T15:30:02.751Z,35.10
2018-08-20T15:32:31.351Z,34.30
2018-08-20T15:34:59.909Z,35.80
2018-08-20T15:37:28.427Z,33.60
2018-08-20T15:39:56.994Z,35.60
2018-08-20T15:42:25.572Z,36.30
2018-08-20T15:44:54.119Z,35.80
2018-08-20T15:47:22.629Z,36.40
2018-08-20T15:49:51.195Z,36.10
2018-08-20T15:52:19.887Z,37.80
2018-08-20T15:54:48.379Z,36.60
2018-08-20T15:57:16.976Z,36.20
2018-08-20T15:59:45.748Z,37.60
2018-08-20T16:02:14.457Z,37.40
2018-08-20T16:04:43.164Z,36.60
2018-08-20T16:07:12.013Z,37.40
2018-08-20T16:09:40.545Z,37.40
2018-08-20T16:12:09.106Z,37.30
2018-08-20T16:14:37.598Z,37.30
2018-08-20T16:17:06.168Z,37.40
2018-08-20T16:19:34.682Z,38.60
2018-08-20T16:22:03.645Z,37.40
2018-08-20T16:24:32.159Z,39.20
2018-08-20T16:27:00.814Z,37.40
2018-08-20T16:29:29.472Z,38.40
2018-08-20T16:31:58.053Z,37.40
2018-08-20T16:34:26.602Z,37.40
2018-08-20T16:36:55.216Z,37.40
2018-08-20T16:39:23.917Z,37.40
2018-08-20T16:41:52.397Z,37.40
2018-08-20T16:44:20.935Z,37.40
2018-08-20T16:46:49.447Z,37.40
2018-08-20T16:49:18.233Z,37.40
2018-08-20T16:51:47.425Z,37.30
2018-08-20T16:54:15.969Z,38.30
2018-08-20T16:56:45.094Z,38.20
2018-08-20T16:59:13.829Z,40.30
2018-08-20T17:01:42.341Z,38.20
2018-08-20T17:04:27.551Z,39.00
2018-08-20T17:06:57.421Z,38.60
2018-08-20T17:09:26.088Z,38.20
2018-08-20T17:11:55.734Z,39.50
2018-08-20T17:14:24.492Z,39.90
2018-08-20T17:16:53.327Z,38.90
2018-08-20T17:19:22.041Z,37.50
2018-08-20T17:21:50.695Z,39.70
2018-08-20T17:24:25.778Z,40.00
2018-08-20T17:26:54.519Z,40.20
2018-08-20T17:29:23.374Z,40.10
2018-08-20T17:31:52.424Z,39.90
2018-08-20T17:34:21.533Z,41.20
2018-08-20T17:36:52.006Z,40.40
2018-08-20T17:39:20.990Z,40.90
2018-08-20T17:41:49.697Z,40.40
2018-08-20T17:44:20.599Z,40.60
2018-08-20T17:46:49.168Z,40.70
2018-08-20T17:49:23.145Z,40.70
2018-08-20T17:51:51.850Z,41.90
2018-08-20T17:54:20.498Z,42.20
2018-08-20T17:56:49.103Z,41.40
2018-08-20T17:59:17.954Z,41.70
2018-08-20T18:01:46.515Z,42.70
2018-08-20T18:04:15.192Z,42.70
2018-08-20T18:06:52.595Z,43.30
2018-08-20T18:09:21.173Z,42.80
2018-08-20T18:11:54.157Z,42.20
2018-08-20T18:14:24.032Z,43.50
2018-08-20T18:16:52.730Z,43.30
2018-08-20T18:19:21.289Z,44.60
2018-08-20T18:21:50.096Z,44.50
2018-08-20T18:24:20.043Z,44.40
2018-08-20T18:26:50.992Z,43.10
2018-08-20T18:29:19.525Z,43.70
2018-08-20T18:31:59.421Z,44.60
2018-08-20T18:34:27.949Z,44.60
2018-08-20T18:36:56.535Z,45.00
2018-08-20T18:39:25.099Z,45.60
2018-08-20T18:42:01.932Z,45.40
2018-08-20T18:44:31.318Z,46.10
2018-08-20T18:46:59.920Z,46.70
2018-08-20T18:49:28.551Z,46.10
2018-08-20T18:52:07.456Z,45.20
2018-08-20T18:54:37.739Z,44.80
2018-08-20T18:57:06.906Z,45.50
2018-08-20T18:59:37.449Z,46.40
2018-08-20T19:02:07.308Z,46.30
2018-08-20T19:04:41.496Z,46.10
2018-08-20T19:07:11.538Z,46.10
2018-08-20T19:09:41.207Z,47.90
2018-08-20T19:12:10.551Z,47.90
2018-08-20T19:14:39.209Z,47.90
2018-08-20T19:17:18.297Z,47.20
2018-08-20T19:19:49.295Z,48.80
2018-08-20T19:22:23.389Z,47.40
2018-08-20T19:24:52.230Z,48.60
2018-08-20T19:27:20.857Z,47.60
2018-08-20T19:29:49.622Z,47.70
2018-08-20T19:32:18.215Z,48.00
2018-08-20T19:34:47.003Z,46.90
2018-08-20T19:37:15.602Z,46.70
2018-08-20T19:39:44.226Z,46.90
2018-08-20T19:42:19.632Z,46.70
2018-08-20T19:44:48.279Z,49.30
2018-08-20T19:47:16.976Z,48.20
2018-08-20T19:49:45.770Z,47.90
2018-08-20T19:52:14.498Z,47.70
2018-08-20T19:54:43.071Z,47.30
2018-08-20T19:57:11.618Z,47.40
2018-08-20T19:59:40.792Z,48.40
2018-08-20T20:02:11.583Z,49.40
2018-08-20T20:04:40.473Z,49.30
2018-08-20T20:07:09.425Z,49.40
2018-08-20T20:09:38.379Z,48.40
2018-08-20T20:12:07.239Z,48.00
2018-08-20T20:14:43.064Z,48.60
2018-08-20T20:17:11.947Z,49.30
2018-08-20T20:19:40.488Z,49.40
2018-08-20T20:22:16.488Z,49.20
2018-08-20T20:24:45.200Z,49.30
2018-08-20T20:27:13.772Z,49.30
2018-08-20T20:29:42.436Z,49.20
2018-08-20T20:32:11.032Z,49.20
2018-08-20T20:34:39.634Z,49.20
2018-08-20T20:37:08.343Z,49.20
2018-08-20T20:39:40.212Z,51.50
2018-08-20T20:42:08.988Z,51.20
2018-08-20T20:44:38.325Z,49.60
2018-08-20T20:47:07.301Z,49.10
2018-08-20T20:49:35.998Z,49.80
2018-08-20T20:52:04.562Z,50.60
2018-08-20T20:54:33.134Z,51.40
2018-08-20T20:57:01.636Z,50.00
2018-08-20T20:59:30.561Z,51.40
2018-08-20T21:01:59.158Z,51.60
2018-08-20T21:04:27.891Z,51.20
2018-08-20T21:06:56.427Z,49.20
2018-08-20T21:09:25.269Z,52.00
2018-08-20T21:11:53.929Z,51.90
2018-08-20T21:14:22.490Z,52.40
2018-08-20T21:16:51.072Z,50.80
2018-08-20T21:19:19.636Z,50.10
2018-08-20T21:21:48.222Z,51.30
2018-08-20T21:24:16.723Z,52.40
2018-08-20T21:26:45.270Z,51.60
2018-08-20T21:29:13.756Z,53.20
2018-08-20T21:31:47.692Z,52.40
2018-08-20T21:34:16.223Z,52.70
2018-08-20T21:36:44.771Z,51.90
2018-08-20T21:39:13.262Z,51.40
2018-08-20T21:41:41.819Z,52.70
2018-08-20T21:44:10.371Z,54.50
2018-08-20T21:46:39.030Z,53.70
2018-08-20T21:49:07.610Z,52.70
2018-08-20T21:51:42.218Z,53.70
2018-08-20T21:54:10.732Z,53.30
2018-08-20T21:56:49.621Z,54.80
2018-08-20T21:59:18.837Z,54.30
2018-08-20T22:01:47.433Z,53.40
2018-08-20T22:04:18.280Z,52.80
2018-08-20T22:06:47.402Z,52.60
2018-08-20T22:09:15.890Z,52.70
2018-08-20T22:11:44.499Z,53.90
2018-08-20T22:14:13.026Z,52.90
2018-08-20T22:16:41.581Z,53.10
2018-08-20T22:19:10.098Z,53.60
2018-08-20T22:21:38.661Z,54.30
2018-08-20T22:24:07.162Z,54.20
2018-08-20T22:26:39.287Z,54.50
2018-08-20T22:29:07.983Z,54.90
2018-08-20T22:31:37.321Z,54.80
2018-08-20T22:34:06.374Z,55.40
2018-08-20T22:36:34.931Z,55.40
2018-08-20T22:39:05.175Z,55.80
2018-08-20T22:41:33.695Z,57.10
2018-08-20T22:44:02.414Z,57.30
2018-08-20T22:46:31.223Z,56.50
2018-08-20T22:49:00.746Z,57.20
2018-08-20T22:51:30.470Z,57.60
2018-08-20T22:54:00.679Z,58.00
2018-08-20T22:56:33.423Z,58.20
2018-08-20T22:59:06.373Z,58.40
2018-08-20T23:01:34.989Z,58.20
2018-08-20T23:04:03.681Z,57.90
2018-08-20T23:06:32.220Z,57.90
2018-08-20T23:09:14.946Z,57.30
2018-08-20T23:11:43.545Z,57.90
2018-08-20T23:14:12.993Z,57.50
2018-08-20T23:16:41.895Z,57.30
2018-08-20T23:19:10.974Z,57.70
2018-08-20T23:21:42.947Z,58.40
2018-08-20T23:24:12.469Z,58.80
2018-08-20T23:26:41.682Z,59.30
2018-08-20T23:29:10.620Z,58.50
2018-08-20T23:31:39.763Z,58.40
2018-08-20T23:34:10.760Z,59.30
2018-08-20T23:36:39.974Z,60.50
2018-08-20T23:39:09.967Z,59.30
2018-08-20T23:41:38.815Z,59.70
2018-08-20T23:44:07.575Z,59.60
2018-08-20T23:46:39.671Z,59.70
2018-08-20T23:49:08.250Z,60.00
2018-08-20T23:51:36.833Z,60.60
2018-08-20T23:54:05.604Z,60.10
2018-08-20T23:56:34.236Z,60.70
2018-08-20T23:59:02.771Z,60.30
